Eyebrow, Canada
Current Conditions -  °F | °C
As of 12:00 PM on Thursday 23 Oct 2014 (Local Time) from CYMJ Reporting Station
Overcast Overcast  
Wind Chill: 55°   Ceiling: 14000
Heat Index: 55°   Visibility: 15mi
Dew Point: 37°   Wind: 0mph
Humidity: 51%   Direction: NA
Pressure: 29.69"   Gusts: NA
Location:  50.8°N, 106.15°W
Report Text: CYMJ 231800Z 00000KT 15SM FEW080 BKN140 OVC240 13/03 A2969 RMK ACC1AC6CI2 ROOF WND ESTD 23012KT SLP067
Loading
Personal Weather Stations






























Interactive Weather Map
Tropical Storm Tracking
New forecast layout! Learn more

10-Day Weather Forecast

Advertisements
Track Severe Weather on mobile